createdAt,value
2018-11-04T00:00:30.698Z,7.00
2018-11-04T00:02:59.456Z,15.07
2018-11-04T00:05:28.506Z,14.73
2018-11-04T00:07:57.330Z,6.60
2018-11-04T00:10:26.019Z,6.77
2018-11-04T00:12:54.734Z,6.20
2018-11-04T00:15:23.489Z,5.97
2018-11-04T00:17:52.323Z,5.43
2018-11-04T00:20:21.071Z,5.97
2018-11-04T00:22:49.906Z,6.10
2018-11-04T00:25:18.621Z,6.80
2018-11-04T00:27:47.410Z,6.07
2018-11-04T00:30:16.305Z,5.83
2018-11-04T00:32:45.097Z,6.60
2018-11-04T00:35:13.931Z,6.30
2018-11-04T00:37:42.758Z,6.33
2018-11-04T00:40:11.649Z,7.97
2018-11-04T00:42:40.561Z,12.90
2018-11-04T00:45:09.751Z,7.93
2018-11-04T00:47:39.028Z,6.20
2018-11-04T00:50:10.333Z,6.10
2018-11-04T00:52:39.165Z,6.43
2018-11-04T00:55:08.342Z,6.83
2018-11-04T00:57:37.208Z,6.03
2018-11-04T01:00:09.499Z,5.97
2018-11-04T01:02:38.264Z,5.87
2018-11-04T01:05:07.557Z,6.00
2018-11-04T01:07:36.618Z,5.77
2018-11-04T01:10:05.984Z,5.53
2018-11-04T01:12:34.878Z,5.53
2018-11-04T01:15:03.679Z,5.80
2018-11-04T01:17:32.514Z,6.13
2018-11-04T01:20:01.347Z,8.20
2018-11-04T01:22:30.115Z,6.07
2018-11-04T01:24:59.226Z,6.07
2018-11-04T01:27:28.032Z,5.70
2018-11-04T01:29:57.315Z,5.70
2018-11-04T01:32:26.123Z,5.90
2018-11-04T01:34:54.953Z,5.30
2018-11-04T01:37:23.783Z,5.77
2018-11-04T01:39:52.587Z,5.70
2018-11-04T01:42:21.346Z,5.90
2018-11-04T01:44:50.121Z,5.20
2018-11-04T01:47:19.318Z,5.83
2018-11-04T01:49:48.020Z,5.30
2018-11-04T01:52:16.773Z,5.87
2018-11-04T01:54:45.529Z,8.27
2018-11-04T01:57:14.830Z,13.33
2018-11-04T01:59:43.815Z,13.77
2018-11-04T02:02:12.765Z,20.17
2018-11-04T02:04:42.335Z,10.33
2018-11-04T02:07:11.111Z,6.70
2018-11-04T02:09:40.015Z,5.80
2018-11-04T02:12:08.781Z,6.23
2018-11-04T02:14:37.488Z,6.07
2018-11-04T02:17:06.200Z,5.40
2018-11-04T02:19:34.919Z,5.60
2018-11-04T02:22:03.657Z,6.37
2018-11-04T02:24:32.475Z,6.43
2018-11-04T02:27:01.202Z,6.40
2018-11-04T02:29:29.938Z,5.67
2018-11-04T02:31:58.697Z,6.27
2018-11-04T02:34:27.665Z,6.13
2018-11-04T02:36:56.471Z,5.87
2018-11-04T02:39:26.358Z,6.07
2018-11-04T02:41:55.084Z,5.47
2018-11-04T02:44:23.851Z,6.47
2018-11-04T02:46:52.585Z,6.40
2018-11-04T02:49:21.735Z,6.43
2018-11-04T02:51:50.465Z,7.83
2018-11-04T02:54:19.189Z,6.63
2018-11-04T02:56:47.948Z,6.67
2018-11-04T02:59:16.686Z,7.73
2018-11-04T03:01:45.468Z,7.33
2018-11-04T03:04:14.193Z,7.90
2018-11-04T03:06:43.845Z,7.33
2018-11-04T03:09:12.777Z,7.53
2018-11-04T03:11:41.461Z,7.50
2018-11-04T03:14:10.245Z,7.90
2018-11-04T03:16:38.996Z,8.00
2018-11-04T03:19:07.768Z,7.60
2018-11-04T03:21:36.500Z,8.73
2018-11-04T03:24:05.463Z,9.03
2018-11-04T03:26:34.455Z,9.33
2018-11-04T03:29:03.246Z,9.80
2018-11-04T03:31:32.045Z,9.67
2018-11-04T03:34:00.800Z,10.30
2018-11-04T03:36:29.553Z,9.60
2018-11-04T03:38:58.275Z,9.67
2018-11-04T03:41:27.067Z,9.87
2018-11-04T03:43:55.765Z,10.27
2018-11-04T03:46:24.519Z,10.27
2018-11-04T03:48:53.196Z,10.23
2018-11-04T03:51:21.916Z,10.97
2018-11-04T03:53:50.716Z,10.17
2018-11-04T03:56:19.559Z,9.80
2018-11-04T03:58:48.267Z,9.77
2018-11-04T04:01:17.272Z,10.37
2018-11-04T04:03:46.122Z,11.00
2018-11-04T04:06:14.932Z,10.40
2018-11-04T04:08:43.652Z,10.53
2018-11-04T04:11:12.481Z,10.07
2018-11-04T04:13:41.158Z,9.00
2018-11-04T04:16:09.909Z,10.27
2018-11-04T04:18:38.643Z,10.13
2018-11-04T04:21:08.657Z,10.73
2018-11-04T04:23:39.015Z,10.07
2018-11-04T04:26:09.159Z,10.13
2018-11-04T04:28:37.987Z,10.93
2018-11-04T04:31:06.705Z,11.10
2018-11-04T04:33:35.435Z,10.50
2018-11-04T04:36:05.069Z,10.53
2018-11-04T04:38:33.820Z,9.83
2018-11-04T04:41:02.576Z,9.50
2018-11-04T04:43:31.384Z,10.30
2018-11-04T04:46:00.193Z,9.87
2018-11-04T04:48:28.890Z,10.23
2018-11-04T04:50:57.642Z,10.23
2018-11-04T04:53:26.424Z,9.87
2018-11-04T04:55:56.603Z,10.13
2018-11-04T04:58:31.781Z,10.83
2018-11-04T05:01:00.488Z,9.67
2018-11-04T05:03:29.259Z,9.47
2018-11-04T05:05:58.011Z,10.27
2018-11-04T05:08:26.756Z,10.03
2018-11-04T05:10:55.529Z,10.10
2018-11-04T05:13:24.228Z,10.33
2018-11-04T05:15:53.045Z,10.00
2018-11-04T05:18:21.766Z,10.60
2018-11-04T05:20:50.995Z,10.00
2018-11-04T05:23:19.702Z,10.17
2018-11-04T05:25:48.389Z,10.57
2018-11-04T05:28:17.151Z,10.90
2018-11-04T05:30:52.321Z,10.53
2018-11-04T05:33:21.028Z,11.07
2018-11-04T05:35:49.735Z,11.10
2018-11-04T05:38:18.597Z,10.20
2018-11-04T05:40:47.263Z,11.37
2018-11-04T05:43:16.005Z,11.03
2018-11-04T05:45:44.691Z,11.30
2018-11-04T05:48:13.390Z,11.60
2018-11-04T05:50:48.896Z,11.67
2018-11-04T05:53:17.622Z,12.33
2018-11-04T05:55:46.354Z,12.00
2018-11-04T05:58:15.173Z,12.03
2018-11-04T06:00:43.936Z,11.73
2018-11-04T06:03:12.639Z,12.10
2018-11-04T06:05:41.379Z,11.53
2018-11-04T06:08:10.167Z,11.73
2018-11-04T06:10:38.904Z,12.47
2018-11-04T06:13:07.631Z,11.57
2018-11-04T06:15:36.371Z,11.63
2018-11-04T06:18:05.311Z,12.10
2018-11-04T06:20:34.019Z,12.90
2018-11-04T06:23:02.804Z,13.13
2018-11-04T06:25:32.336Z,12.13
2018-11-04T06:28:01.058Z,13.07
2018-11-04T06:30:29.777Z,13.30
2018-11-04T06:32:58.572Z,13.30
2018-11-04T06:35:27.422Z,14.03
2018-11-04T06:37:56.221Z,14.40
2018-11-04T06:40:25.077Z,13.63
2018-11-04T06:42:53.794Z,14.77
2018-11-04T06:45:22.820Z,14.20
2018-11-04T06:47:51.713Z,15.47
2018-11-04T06:50:20.416Z,14.77
2018-11-04T06:52:50.308Z,14.97
2018-11-04T06:55:18.995Z,15.20
2018-11-04T06:57:47.703Z,13.50
2018-11-04T07:00:16.408Z,13.93
2018-11-04T07:02:45.195Z,14.53
2018-11-04T07:05:13.968Z,13.80
2018-11-04T07:07:42.731Z,14.33
2018-11-04T07:10:11.459Z,13.67
2018-11-04T07:12:40.206Z,13.10
2018-11-04T07:15:08.917Z,12.60
2018-11-04T07:17:37.642Z,12.50
2018-11-04T07:20:07.085Z,12.27
2018-11-04T07:22:35.712Z,12.60
2018-11-04T07:25:04.884Z,12.10
2018-11-04T07:27:33.700Z,11.93
2018-11-04T07:30:02.704Z,12.93
2018-11-04T07:32:31.526Z,11.90
2018-11-04T07:35:00.206Z,11.73
2018-11-04T07:37:28.948Z,11.53
2018-11-04T07:39:57.816Z,11.83
2018-11-04T07:42:26.782Z,11.10
2018-11-04T07:44:55.708Z,11.63
2018-11-04T07:47:31.882Z,11.40
2018-11-04T07:50:00.840Z,13.50
2018-11-04T07:52:29.588Z,11.97
2018-11-04T07:54:58.447Z,11.53
2018-11-04T07:57:27.189Z,14.50
2018-11-04T07:59:56.053Z,10.93
2018-11-04T08:02:24.819Z,10.73
2018-11-04T08:04:53.691Z,11.50
2018-11-04T08:07:22.559Z,11.30
2018-11-04T08:09:51.254Z,10.90
2018-11-04T08:12:20.368Z,10.53
2018-11-04T08:14:49.108Z,10.67
2018-11-04T08:17:18.045Z,10.47
2018-11-04T08:22:26.407Z,10.37
2018-11-04T08:25:01.043Z,11.10
2018-11-04T08:27:45.851Z,11.17
2018-11-04T08:30:15.253Z,11.60
2018-11-04T08:32:50.735Z,11.00
2018-11-04T08:35:21.463Z,10.63
2018-11-04T08:37:51.374Z,10.73
2018-11-04T08:43:03.392Z,10.50
2018-11-04T08:45:32.752Z,10.13
2018-11-04T08:48:01.851Z,10.17
2018-11-04T08:50:30.678Z,10.90
2018-11-04T08:55:38.768Z,11.70
2018-11-04T08:58:07.593Z,11.17
2018-11-04T09:00:36.315Z,11.10
2018-11-04T09:03:05.164Z,10.17
2018-11-04T09:05:34.026Z,10.87
2018-11-04T09:08:02.998Z,10.73
2018-11-04T09:10:31.834Z,10.40
2018-11-04T09:13:00.658Z,10.20
2018-11-04T09:15:31.110Z,10.20
2018-11-04T09:18:01.205Z,10.40
2018-11-04T09:20:30.116Z,10.53
2018-11-04T09:22:59.538Z,10.67
2018-11-04T09:25:28.572Z,10.67
2018-11-04T09:30:33.883Z,10.53
2018-11-04T09:33:08.633Z,10.37
2018-11-04T09:35:51.437Z,11.20
2018-11-04T09:38:21.283Z,10.77
2018-11-04T09:40:55.279Z,10.33
2018-11-04T09:43:24.288Z,11.00
2018-11-04T09:45:53.475Z,11.13
2018-11-04T09:48:22.858Z,10.87
2018-11-04T09:50:51.604Z,11.67
2018-11-04T09:53:21.780Z,11.63
2018-11-04T09:55:50.537Z,10.97
2018-11-04T09:58:19.337Z,11.77
2018-11-04T10:00:48.187Z,12.00
2018-11-04T10:03:17.071Z,10.90
2018-11-04T10:05:45.819Z,12.53
2018-11-04T10:08:15.350Z,12.13
2018-11-04T10:10:44.363Z,12.47
2018-11-04T10:13:13.281Z,12.47
2018-11-04T10:15:42.269Z,12.90
2018-11-04T10:18:11.088Z,13.27
2018-11-04T10:20:40.317Z,12.40
2018-11-04T10:23:08.811Z,12.67
2018-11-04T10:25:37.656Z,13.97
2018-11-04T10:28:06.389Z,13.70
2018-11-04T10:30:35.903Z,13.50
2018-11-04T10:33:05.362Z,13.93
2018-11-04T10:35:35.953Z,14.17
2018-11-04T10:38:05.128Z,14.40
2018-11-04T10:40:35.180Z,14.57
2018-11-04T10:43:04.054Z,14.70
2018-11-04T10:45:32.816Z,15.80
2018-11-04T10:48:01.538Z,16.47
2018-11-04T10:50:38.051Z,16.70
2018-11-04T10:53:12.013Z,16.13
2018-11-04T10:55:42.464Z,16.40
2018-11-04T10:58:16.612Z,16.77
2018-11-04T11:03:34.864Z,16.40
2018-11-04T11:06:07.769Z,17.20
2018-11-04T11:08:41.034Z,17.40
2018-11-04T11:11:18.530Z,17.47
2018-11-04T11:13:47.867Z,16.90
2018-11-04T11:16:16.616Z,18.03
2018-11-04T11:18:45.442Z,17.07
2018-11-04T11:21:14.341Z,16.87
2018-11-04T11:23:43.352Z,17.10
2018-11-04T11:31:37.829Z,18.10
2018-11-04T11:34:06.596Z,17.20
2018-11-04T11:36:35.392Z,18.03
2018-11-04T11:39:07.572Z,17.50
2018-11-04T11:41:36.711Z,17.73
2018-11-04T11:44:05.927Z,17.60
2018-11-04T11:46:34.902Z,18.17
2018-11-04T11:49:03.689Z,18.57
2018-11-04T11:51:32.491Z,17.50
2018-11-04T11:54:02.161Z,18.67
2018-11-04T11:56:31.216Z,18.00
2018-11-04T11:59:00.078Z,18.67
2018-11-04T12:01:29.414Z,18.70
2018-11-04T12:04:01.059Z,17.57
2018-11-04T12:06:31.999Z,20.53
2018-11-04T12:09:02.412Z,21.20
2018-11-04T12:11:32.607Z,19.70
2018-11-04T12:14:02.674Z,20.80
2018-11-04T12:16:32.293Z,21.53
2018-11-04T12:19:02.589Z,21.53
2018-11-04T12:21:31.327Z,22.67
2018-11-04T12:24:00.058Z,22.57
2018-11-04T12:26:28.883Z,22.23
2018-11-04T12:28:57.644Z,21.77
2018-11-04T12:31:26.419Z,21.83
2018-11-04T12:33:55.333Z,21.53
2018-11-04T12:36:25.414Z,21.23
2018-11-04T12:38:55.485Z,21.37
2018-11-04T12:44:02.281Z,21.47
2018-11-04T12:46:31.063Z,22.33
2018-11-04T12:49:01.172Z,21.97
2018-11-04T12:51:30.879Z,22.00
2018-11-04T12:54:00.789Z,21.57
2018-11-04T12:56:34.466Z,21.60
2018-11-04T12:59:10.154Z,22.20
2018-11-04T13:01:39.009Z,21.77
2018-11-04T13:04:08.288Z,22.13
2018-11-04T13:06:37.121Z,23.20
2018-11-04T13:09:07.796Z,22.27
2018-11-04T13:11:37.566Z,23.17
2018-11-04T13:14:06.720Z,22.30
2018-11-04T13:16:36.432Z,22.00
2018-11-04T13:19:06.430Z,21.70
2018-11-04T13:21:35.748Z,21.70
2018-11-04T13:24:04.600Z,21.80
2018-11-04T13:26:33.298Z,22.10
2018-11-04T13:29:02.948Z,21.97
2018-11-04T13:31:31.692Z,20.87
2018-11-04T13:34:00.399Z,20.93
2018-11-04T13:36:29.215Z,22.73
2018-11-04T13:38:58.130Z,21.40
2018-11-04T13:41:27.488Z,21.50
2018-11-04T13:44:02.396Z,19.83
2018-11-04T13:46:31.124Z,20.63
2018-11-04T13:48:59.869Z,20.73
2018-11-04T13:51:28.845Z,22.37
2018-11-04T13:53:59.883Z,22.90
2018-11-04T13:56:28.661Z,22.17
2018-11-04T13:58:58.107Z,21.47
2018-11-04T14:01:27.404Z,21.17
2018-11-04T14:03:56.098Z,21.70
2018-11-04T14:06:24.797Z,21.23
2018-11-04T14:11:29.092Z,20.43
2018-11-04T14:14:05.552Z,20.40
2018-11-04T14:16:34.747Z,20.77
2018-11-04T14:19:03.451Z,20.60
2018-11-04T14:21:32.228Z,19.83
2018-11-04T14:24:00.963Z,20.07
2018-11-04T14:26:29.675Z,20.53
2018-11-04T14:28:58.466Z,21.13
2018-11-04T14:31:27.211Z,20.63
2018-11-04T14:33:56.304Z,19.70
2018-11-04T14:36:25.033Z,20.40
2018-11-04T14:38:53.720Z,19.07
2018-11-04T14:41:22.452Z,19.60
2018-11-04T14:43:52.334Z,19.20
2018-11-04T14:46:21.813Z,19.77
2018-11-04T14:48:50.522Z,19.70
2018-11-04T14:51:20.597Z,20.37
2018-11-04T14:53:49.462Z,20.80
2018-11-04T14:56:18.126Z,22.30
2018-11-04T14:58:47.239Z,23.27
2018-11-04T15:01:16.120Z,23.53
2018-11-04T15:03:44.813Z,22.37
2018-11-04T15:06:13.908Z,22.57
2018-11-04T15:08:42.612Z,22.50
2018-11-04T15:11:11.327Z,22.43
2018-11-04T15:13:41.275Z,22.57
2018-11-04T15:16:10.092Z,22.60
2018-11-04T15:18:39.479Z,21.93
2018-11-04T15:21:08.959Z,22.30
2018-11-04T15:23:40.542Z,22.07
2018-11-04T15:26:10.741Z,22.23
2018-11-04T15:28:40.370Z,22.80
2018-11-04T15:31:09.116Z,23.23
2018-11-04T15:33:37.912Z,22.40
2018-11-04T15:36:07.129Z,22.60
2018-11-04T15:38:36.008Z,22.77
2018-11-04T15:41:05.665Z,23.97
2018-11-04T15:43:35.069Z,23.53
2018-11-04T15:46:04.702Z,23.93
2018-11-04T15:48:33.505Z,24.13
2018-11-04T15:51:06.520Z,23.57
2018-11-04T15:53:36.880Z,24.03
2018-11-04T15:56:08.530Z,24.80
2018-11-04T15:58:37.291Z,24.77
2018-11-04T16:01:06.097Z,25.83
2018-11-04T16:03:39.429Z,25.70
2018-11-04T16:06:09.783Z,25.53
2018-11-04T16:08:38.606Z,26.30
2018-11-04T16:11:08.418Z,26.13
2018-11-04T16:13:40.018Z,26.60
2018-11-04T16:16:08.756Z,26.20
2018-11-04T16:18:37.703Z,25.73
2018-11-04T16:21:07.389Z,26.07
2018-11-04T16:26:23.150Z,26.23
2018-11-04T16:28:52.078Z,27.97
2018-11-04T16:31:27.720Z,27.27
2018-11-04T16:33:56.461Z,28.33
2018-11-04T16:36:25.973Z,28.60
2018-11-04T16:38:56.268Z,29.03
2018-11-04T16:41:26.302Z,28.70
2018-11-04T16:46:32.230Z,30.43
2018-11-04T16:51:39.350Z,30.83
2018-11-04T16:54:14.070Z,32.67
2018-11-04T16:56:44.790Z,33.23
2018-11-04T16:59:15.058Z,33.27
2018-11-04T17:04:38.308Z,34.77
2018-11-04T17:07:09.101Z,33.80
2018-11-04T17:09:38.658Z,34.87
2018-11-04T17:12:07.517Z,34.27
2018-11-04T17:14:37.905Z,35.47
2018-11-04T17:17:07.449Z,37.93
2018-11-04T17:19:38.542Z,36.60
2018-11-04T17:24:51.914Z,37.90
2018-11-04T17:27:32.187Z,38.00
2018-11-04T17:30:11.390Z,38.50
2018-11-04T17:32:40.560Z,38.87
2018-11-04T17:35:10.523Z,39.87
2018-11-04T17:37:39.575Z,40.10
2018-11-04T17:40:14.227Z,39.23
2018-11-04T17:42:52.399Z,41.03
2018-11-04T17:45:33.461Z,39.20
2018-11-04T17:48:02.825Z,38.90
2018-11-04T17:50:31.612Z,39.57
2018-11-04T17:53:00.427Z,40.27
2018-11-04T17:55:36.019Z,40.23
2018-11-04T17:58:06.971Z,40.43
2018-11-04T18:00:41.048Z,40.57
2018-11-04T18:03:15.917Z,39.43
2018-11-04T18:05:45.313Z,40.53
2018-11-04T18:08:14.212Z,39.60
2018-11-04T18:10:44.016Z,41.37
2018-11-04T18:13:12.791Z,40.67
2018-11-04T18:15:41.577Z,39.20
2018-11-04T18:18:10.445Z,40.57
2018-11-04T18:20:40.450Z,39.13
2018-11-04T18:23:09.273Z,40.03
2018-11-04T18:25:38.997Z,38.93
2018-11-04T18:28:09.080Z,39.50
2018-11-04T18:30:38.112Z,39.33
2018-11-04T18:33:07.075Z,40.13
2018-11-04T18:35:36.236Z,39.77
2018-11-04T18:38:05.697Z,38.90
2018-11-04T18:40:35.664Z,39.73
2018-11-04T18:43:05.798Z,39.37
2018-11-04T18:45:36.192Z,40.73
2018-11-04T18:48:05.581Z,42.03
2018-11-04T18:50:34.753Z,38.83
2018-11-04T18:53:03.528Z,39.30
2018-11-04T18:55:32.659Z,39.83
2018-11-04T18:58:01.420Z,39.00
2018-11-04T19:00:30.541Z,39.70
2018-11-04T19:02:59.309Z,38.30
2018-11-04T19:05:28.164Z,39.60
2018-11-04T19:07:56.942Z,38.77
2018-11-04T19:10:25.733Z,39.67
2018-11-04T19:12:54.489Z,38.97
2018-11-04T19:15:23.462Z,37.93
2018-11-04T19:17:52.278Z,38.77
2018-11-04T19:20:21.551Z,39.30
2018-11-04T19:22:51.968Z,38.67
2018-11-04T19:25:21.479Z,37.47
2018-11-04T19:27:52.540Z,37.83
2018-11-04T19:30:22.262Z,39.47
2018-11-04T19:32:51.072Z,38.40
2018-11-04T19:35:21.443Z,38.33
2018-11-04T19:37:56.960Z,39.17
2018-11-04T19:40:25.874Z,37.80
2018-11-04T19:42:54.726Z,38.77
2018-11-04T19:45:23.599Z,38.97
2018-11-04T19:47:52.770Z,37.73
2018-11-04T19:50:23.854Z,39.27
2018-11-04T19:52:58.049Z,37.90
2018-11-04T19:55:30.031Z,37.80
2018-11-04T19:57:59.668Z,37.50
2018-11-04T20:00:28.785Z,38.93
2018-11-04T20:03:00.966Z,37.70
2018-11-04T20:05:30.764Z,37.67
2018-11-04T20:07:59.677Z,37.93
2018-11-04T20:10:28.414Z,38.23
2018-11-04T20:13:02.808Z,37.70
2018-11-04T20:15:32.720Z,36.87
2018-11-04T20:18:05.848Z,37.73
2018-11-04T20:20:35.121Z,37.37
2018-11-04T20:23:04.079Z,37.33
2018-11-04T20:25:38.554Z,36.17
2018-11-04T20:28:07.392Z,37.23
2018-11-04T20:30:36.436Z,36.57
2018-11-04T20:33:08.966Z,36.97
2018-11-04T20:35:37.850Z,36.53
2018-11-04T20:38:06.808Z,36.77
2018-11-04T20:40:40.996Z,37.67
2018-11-04T20:43:09.916Z,38.97
2018-11-04T20:45:38.791Z,36.83
2018-11-04T20:48:13.294Z,36.80
2018-11-04T20:50:47.673Z,36.63
2018-11-04T20:53:16.554Z,37.43
2018-11-04T20:55:51.015Z,37.23
2018-11-04T20:58:19.968Z,36.33
2018-11-04T21:00:48.596Z,37.93
2018-11-04T21:03:17.448Z,36.33
2018-11-04T21:05:46.327Z,36.70
2018-11-04T21:08:15.091Z,37.83
2018-11-04T21:10:43.966Z,36.47
2018-11-04T21:13:12.716Z,37.20
2018-11-04T21:15:41.551Z,37.83
2018-11-04T21:18:10.300Z,36.07
2018-11-04T21:20:39.023Z,38.83
2018-11-04T21:23:07.846Z,37.87
2018-11-04T21:25:36.875Z,39.50
2018-11-04T21:28:05.667Z,39.20
2018-11-04T21:30:34.242Z,38.47
2018-11-04T21:33:02.970Z,39.27
2018-11-04T21:35:32.683Z,37.57
2018-11-04T21:38:01.626Z,39.60
2018-11-04T21:40:30.247Z,40.50
2018-11-04T21:42:59.031Z,39.57
2018-11-04T21:45:27.786Z,39.03
2018-11-04T21:47:56.682Z,40.77
2018-11-04T21:50:25.744Z,40.30
2018-11-04T21:52:54.464Z,40.17
2018-11-04T21:55:23.642Z,40.27
2018-11-04T21:57:52.213Z,40.73
2018-11-04T22:00:21.112Z,39.60
2018-11-04T22:02:50.017Z,41.40
2018-11-04T22:05:19.101Z,39.57
2018-11-04T22:07:47.852Z,39.17
2018-11-04T22:10:16.697Z,40.03
2018-11-04T22:12:45.419Z,39.47
2018-11-04T22:15:14.189Z,38.20
2018-11-04T22:17:42.990Z,38.50
2018-11-04T22:20:12.940Z,38.97
2018-11-04T22:22:41.688Z,38.60
2018-11-04T22:25:11.443Z,38.97
2018-11-04T22:27:40.181Z,40.00
2018-11-04T22:30:10.481Z,39.13
2018-11-04T22:32:39.625Z,39.33
2018-11-04T22:35:09.747Z,37.77
2018-11-04T22:37:38.728Z,37.80
2018-11-04T22:40:08.801Z,37.90
2018-11-04T22:42:37.631Z,36.50
2018-11-04T22:45:07.456Z,33.80
2018-11-04T22:47:36.268Z,34.83
2018-11-04T22:50:08.163Z,33.13
2018-11-04T22:52:37.412Z,32.83
2018-11-04T22:55:06.263Z,31.40
2018-11-04T22:57:35.028Z,32.40
2018-11-04T23:00:04.763Z,32.50
2018-11-04T23:02:33.621Z,32.30
2018-11-04T23:05:37.155Z,30.63
2018-11-04T23:08:06.561Z,30.60
2018-11-04T23:10:35.856Z,29.43
2018-11-04T23:13:04.636Z,30.27
2018-11-04T23:15:33.352Z,28.83
2018-11-04T23:18:02.121Z,29.70
2018-11-04T23:20:30.925Z,28.93
2018-11-04T23:22:59.660Z,28.83
2018-11-04T23:25:28.425Z,30.10
2018-11-04T23:27:57.159Z,30.17
2018-11-04T23:30:25.935Z,29.60
2018-11-04T23:32:54.655Z,29.27
2018-11-04T23:35:23.445Z,29.60
2018-11-04T23:37:52.161Z,29.03
2018-11-04T23:40:20.883Z,29.87
2018-11-04T23:42:49.599Z,29.40
2018-11-04T23:45:18.435Z,28.93
2018-11-04T23:47:47.180Z,29.63
2018-11-04T23:50:17.682Z,29.27
2018-11-04T23:52:46.496Z,29.03
2018-11-04T23:55:15.796Z,31.67
2018-11-04T23:57:44.522Z,30.43
